sensor_id;sensor_type;location;lat;lon;timestamp;P1;durP1;ratioP1;P2;durP2;ratioP2
22334;SDS011;11335;43.848;25.958;2023-05-29T00:02:39;14.88;;;11.48;;
22334;SDS011;11335;43.848;25.958;2023-05-29T00:05:29;17.70;;;13.38;;
22334;SDS011;11335;43.848;25.958;2023-05-29T00:08:15;18.63;;;12.98;;
22334;SDS011;11335;43.848;25.958;2023-05-29T00:11:01;16.73;;;13.48;;
22334;SDS011;11335;43.848;25.958;2023-05-29T00:13:46;18.38;;;13.20;;
22334;SDS011;11335;43.848;25.958;2023-05-29T00:16:32;16.50;;;12.90;;
22334;SDS011;11335;43.848;25.958;2023-05-29T00:19:18;17.42;;;13.43;;
22334;SDS011;11335;43.848;25.958;2023-05-29T00:22:04;17.42;;;12.77;;
22334;SDS011;11335;43.848;25.958;2023-05-29T00:24:50;17.15;;;13.23;;
22334;SDS011;11335;43.848;25.958;2023-05-29T00:27:36;19.98;;;14.63;;
22334;SDS011;11335;43.848;25.958;2023-05-29T00:30:21;20.55;;;15.18;;
22334;SDS011;11335;43.848;25.958;2023-05-29T00:33:07;23.02;;;16.00;;
22334;SDS011;11335;43.848;25.958;2023-05-29T00:35:53;25.65;;;16.58;;
22334;SDS011;11335;43.848;25.958;2023-05-29T00:38:39;20.00;;;16.35;;
22334;SDS011;11335;43.848;25.958;2023-05-29T00:41:25;23.33;;;16.35;;
22334;SDS011;11335;43.848;25.958;2023-05-29T00:44:11;24.13;;;17.38;;
22334;SDS011;11335;43.848;25.958;2023-05-29T00:46:57;21.95;;;16.75;;
22334;SDS011;11335;43.848;25.958;2023-05-29T00:49:44;22.15;;;16.95;;
22334;SDS011;11335;43.848;25.958;2023-05-29T00:52:30;20.58;;;16.38;;
22334;SDS011;11335;43.848;25.958;2023-05-29T00:55:15;21.50;;;17.00;;
22334;SDS011;11335;43.848;25.958;2023-05-29T00:58:01;26.55;;;18.23;;
22334;SDS011;11335;43.848;25.958;2023-05-29T01:00:47;24.67;;;16.83;;
22334;SDS011;11335;43.848;25.958;2023-05-29T01:03:33;23.85;;;17.48;;
22334;SDS011;11335;43.848;25.958;2023-05-29T01:06:23;23.17;;;17.45;;
22334;SDS011;11335;43.848;25.958;2023-05-29T01:09:08;24.02;;;18.25;;
22334;SDS011;11335;43.848;25.958;2023-05-29T01:12:16;23.50;;;17.63;;
22334;SDS011;11335;43.848;25.958;2023-05-29T01:21:27;30.25;;;18.15;;
22334;SDS011;11335;43.848;25.958;2023-05-29T01:27:35;23.42;;;16.80;;
22334;SDS011;11335;43.848;25.958;2023-05-29T01:30:24;24.75;;;17.20;;
22334;SDS011;11335;43.848;25.958;2023-05-29T01:33:11;22.05;;;17.40;;
22334;SDS011;11335;43.848;25.958;2023-05-29T01:35:57;23.08;;;16.65;;
22334;SDS011;11335;43.848;25.958;2023-05-29T01:38:42;20.67;;;16.50;;
22334;SDS011;11335;43.848;25.958;2023-05-29T01:41:28;19.50;;;15.45;;
22334;SDS011;11335;43.848;25.958;2023-05-29T01:44:15;21.02;;;15.52;;
22334;SDS011;11335;43.848;25.958;2023-05-29T01:47:03;21.98;;;16.00;;
22334;SDS011;11335;43.848;25.958;2023-05-29T01:49:50;20.48;;;15.20;;
22334;SDS011;11335;43.848;25.958;2023-05-29T01:52:37;20.50;;;15.25;;
22334;SDS011;11335;43.848;25.958;2023-05-29T01:55:23;18.95;;;14.60;;
22334;SDS011;11335;43.848;25.958;2023-05-29T01:58:09;20.55;;;14.77;;
22334;SDS011;11335;43.848;25.958;2023-05-29T02:00:57;20.27;;;15.52;;
22334;SDS011;11335;43.848;25.958;2023-05-29T02:03:43;20.55;;;15.20;;
22334;SDS011;11335;43.848;25.958;2023-05-29T02:06:29;22.83;;;15.82;;
22334;SDS011;11335;43.848;25.958;2023-05-29T02:09:16;23.02;;;16.38;;
22334;SDS011;11335;43.848;25.958;2023-05-29T02:12:03;21.63;;;16.33;;
22334;SDS011;11335;43.848;25.958;2023-05-29T02:14:49;24.92;;;17.15;;
22334;SDS011;11335;43.848;25.958;2023-05-29T02:17:34;19.88;;;16.27;;
22334;SDS011;11335;43.848;25.958;2023-05-29T02:20:20;24.92;;;17.25;;
22334;SDS011;11335;43.848;25.958;2023-05-29T02:23:09;22.58;;;17.08;;
22334;SDS011;11335;43.848;25.958;2023-05-29T02:25:55;21.02;;;15.65;;
22334;SDS011;11335;43.848;25.958;2023-05-29T02:28:41;21.25;;;15.48;;
22334;SDS011;11335;43.848;25.958;2023-05-29T02:31:27;19.85;;;15.00;;
22334;SDS011;11335;43.848;25.958;2023-05-29T02:34:12;19.20;;;14.70;;
22334;SDS011;11335;43.848;25.958;2023-05-29T02:36:58;21.20;;;16.00;;
22334;SDS011;11335;43.848;25.958;2023-05-29T02:39:44;22.27;;;14.55;;
22334;SDS011;11335;43.848;25.958;2023-05-29T02:42:29;21.23;;;14.57;;
22334;SDS011;11335;43.848;25.958;2023-05-29T02:45:15;22.38;;;16.20;;
22334;SDS011;11335;43.848;25.958;2023-05-29T02:48:01;23.02;;;15.20;;
22334;SDS011;11335;43.848;25.958;2023-05-29T02:50:49;24.25;;;15.52;;
22334;SDS011;11335;43.848;25.958;2023-05-29T02:53:35;22.13;;;14.80;;
22334;SDS011;11335;43.848;25.958;2023-05-29T02:56:20;21.13;;;14.80;;
22334;SDS011;11335;43.848;25.958;2023-05-29T02:59:09;20.38;;;14.25;;
22334;SDS011;11335;43.848;25.958;2023-05-29T03:01:54;19.75;;;14.40;;
22334;SDS011;11335;43.848;25.958;2023-05-29T03:04:40;18.98;;;14.82;;
22334;SDS011;11335;43.848;25.958;2023-05-29T03:07:26;20.05;;;14.63;;
22334;SDS011;11335;43.848;25.958;2023-05-29T03:10:12;18.60;;;15.13;;
22334;SDS011;11335;43.848;25.958;2023-05-29T03:12:57;20.50;;;14.68;;
22334;SDS011;11335;43.848;25.958;2023-05-29T03:15:43;21.33;;;14.30;;
22334;SDS011;11335;43.848;25.958;2023-05-29T03:18:29;17.55;;;14.60;;
22334;SDS011;11335;43.848;25.958;2023-05-29T03:21:15;18.25;;;14.45;;
22334;SDS011;11335;43.848;25.958;2023-05-29T03:24:02;17.98;;;14.55;;
22334;SDS011;11335;43.848;25.958;2023-05-29T03:26:48;18.02;;;14.38;;
22334;SDS011;11335;43.848;25.958;2023-05-29T03:29:33;19.92;;;14.50;;
22334;SDS011;11335;43.848;25.958;2023-05-29T03:32:19;19.42;;;15.15;;
22334;SDS011;11335;43.848;25.958;2023-05-29T03:35:05;20.75;;;15.40;;
22334;SDS011;11335;43.848;25.958;2023-05-29T03:37:51;18.88;;;14.20;;
22334;SDS011;11335;43.848;25.958;2023-05-29T03:40:37;19.33;;;15.65;;
22334;SDS011;11335;43.848;25.958;2023-05-29T03:43:23;21.88;;;15.23;;
22334;SDS011;11335;43.848;25.958;2023-05-29T03:46:08;21.75;;;16.27;;
22334;SDS011;11335;43.848;25.958;2023-05-29T03:48:54;22.40;;;15.57;;
22334;SDS011;11335;43.848;25.958;2023-05-29T03:51:40;21.45;;;15.68;;
22334;SDS011;11335;43.848;25.958;2023-05-29T03:54:25;20.77;;;14.93;;
22334;SDS011;11335;43.848;25.958;2023-05-29T03:57:11;18.00;;;14.85;;
22334;SDS011;11335;43.848;25.958;2023-05-29T04:02:32;20.25;;;15.23;;
22334;SDS011;11335;43.848;25.958;2023-05-29T04:05:18;26.50;;;15.77;;
22334;SDS011;11335;43.848;25.958;2023-05-29T04:08:04;26.05;;;16.50;;
22334;SDS011;11335;43.848;25.958;2023-05-29T04:10:50;22.35;;;15.93;;
22334;SDS011;11335;43.848;25.958;2023-05-29T04:13:39;26.00;;;16.00;;
22334;SDS011;11335;43.848;25.958;2023-05-29T04:16:25;20.13;;;14.95;;
22334;SDS011;11335;43.848;25.958;2023-05-29T04:19:10;22.17;;;14.73;;
22334;SDS011;11335;43.848;25.958;2023-05-29T04:21:56;23.15;;;15.77;;
22334;SDS011;11335;43.848;25.958;2023-05-29T04:24:42;19.77;;;14.95;;
22334;SDS011;11335;43.848;25.958;2023-05-29T04:27:34;24.02;;;16.75;;
22334;SDS011;11335;43.848;25.958;2023-05-29T04:30:23;22.75;;;15.23;;
22334;SDS011;11335;43.848;25.958;2023-05-29T04:33:09;19.75;;;15.88;;
22334;SDS011;11335;43.848;25.958;2023-05-29T04:35:57;20.13;;;15.23;;
22334;SDS011;11335;43.848;25.958;2023-05-29T04:38:46;20.20;;;15.90;;
22334;SDS011;11335;43.848;25.958;2023-05-29T04:41:32;23.67;;;15.70;;
22334;SDS011;11335;43.848;25.958;2023-05-29T04:44:18;20.02;;;14.52;;
22334;SDS011;11335;43.848;25.958;2023-05-29T04:47:04;20.83;;;14.55;;
22334;SDS011;11335;43.848;25.958;2023-05-29T04:49:51;19.27;;;14.40;;
22334;SDS011;11335;43.848;25.958;2023-05-29T04:52:37;21.95;;;14.38;;
22334;SDS011;11335;43.848;25.958;2023-05-29T04:55:23;21.92;;;14.13;;
22334;SDS011;11335;43.848;25.958;2023-05-29T04:58:09;20.17;;;14.60;;
22334;SDS011;11335;43.848;25.958;2023-05-29T05:00:57;18.70;;;14.48;;
22334;SDS011;11335;43.848;25.958;2023-05-29T05:03:43;17.80;;;14.00;;
22334;SDS011;11335;43.848;25.958;2023-05-29T05:06:29;20.77;;;13.95;;
22334;SDS011;11335;43.848;25.958;2023-05-29T05:09:15;19.02;;;13.63;;
22334;SDS011;11335;43.848;25.958;2023-05-29T05:12:01;21.20;;;15.13;;
22334;SDS011;11335;43.848;25.958;2023-05-29T05:14:46;22.40;;;15.43;;
22334;SDS011;11335;43.848;25.958;2023-05-29T05:17:32;21.80;;;13.80;;
22334;SDS011;11335;43.848;25.958;2023-05-29T05:20:18;19.67;;;13.70;;
22334;SDS011;11335;43.848;25.958;2023-05-29T05:23:04;23.27;;;15.35;;
22334;SDS011;11335;43.848;25.958;2023-05-29T05:25:50;21.27;;;14.75;;
22334;SDS011;11335;43.848;25.958;2023-05-29T05:28:35;19.17;;;14.85;;
22334;SDS011;11335;43.848;25.958;2023-05-29T05:31:21;19.25;;;14.45;;
22334;SDS011;11335;43.848;25.958;2023-05-29T05:34:07;16.25;;;13.05;;
22334;SDS011;11335;43.848;25.958;2023-05-29T05:36:53;20.17;;;13.35;;
22334;SDS011;11335;43.848;25.958;2023-05-29T05:39:39;18.05;;;13.75;;
22334;SDS011;11335;43.848;25.958;2023-05-29T05:42:25;17.20;;;13.50;;
22334;SDS011;11335;43.848;25.958;2023-05-29T05:45:11;17.88;;;13.68;;
22334;SDS011;11335;43.848;25.958;2023-05-29T05:47:56;18.13;;;12.35;;
22334;SDS011;11335;43.848;25.958;2023-05-29T05:50:42;19.20;;;13.18;;
22334;SDS011;11335;43.848;25.958;2023-05-29T05:53:28;16.23;;;12.80;;
22334;SDS011;11335;43.848;25.958;2023-05-29T05:56:14;17.70;;;13.90;;
22334;SDS011;11335;43.848;25.958;2023-05-29T05:58:59;21.85;;;13.32;;
22334;SDS011;11335;43.848;25.958;2023-05-29T06:01:45;22.45;;;12.95;;
22334;SDS011;11335;43.848;25.958;2023-05-29T06:04:31;20.65;;;14.25;;
22334;SDS011;11335;43.848;25.958;2023-05-29T06:07:17;20.67;;;15.48;;
22334;SDS011;11335;43.848;25.958;2023-05-29T06:10:03;35.22;;;22.90;;
22334;SDS011;11335;43.848;25.958;2023-05-29T06:12:50;16.42;;;11.93;;
22334;SDS011;11335;43.848;25.958;2023-05-29T06:15:35;19.15;;;13.02;;
22334;SDS011;11335;43.848;25.958;2023-05-29T06:18:21;15.80;;;11.93;;
22334;SDS011;11335;43.848;25.958;2023-05-29T06:21:07;17.23;;;11.73;;
22334;SDS011;11335;43.848;25.958;2023-05-29T06:23:54;15.82;;;10.70;;
22334;SDS011;11335;43.848;25.958;2023-05-29T06:26:40;16.05;;;11.50;;
22334;SDS011;11335;43.848;25.958;2023-05-29T06:29:26;19.40;;;14.52;;
22334;SDS011;11335;43.848;25.958;2023-05-29T06:32:12;15.50;;;10.93;;
22334;SDS011;11335;43.848;25.958;2023-05-29T06:34:58;17.73;;;10.95;;
22334;SDS011;11335;43.848;25.958;2023-05-29T06:37:44;19.10;;;10.70;;
22334;SDS011;11335;43.848;25.958;2023-05-29T06:40:30;17.67;;;11.65;;
22334;SDS011;11335;43.848;25.958;2023-05-29T06:43:16;22.08;;;12.45;;
22334;SDS011;11335;43.848;25.958;2023-05-29T06:46:02;16.40;;;11.70;;
22334;SDS011;11335;43.848;25.958;2023-05-29T06:48:48;15.48;;;11.10;;
22334;SDS011;11335;43.848;25.958;2023-05-29T06:51:33;17.83;;;11.23;;
22334;SDS011;11335;43.848;25.958;2023-05-29T06:54:20;17.63;;;10.23;;
22334;SDS011;11335;43.848;25.958;2023-05-29T06:57:06;14.93;;;9.98;;
22334;SDS011;11335;43.848;25.958;2023-05-29T06:59:52;18.73;;;10.57;;
22334;SDS011;11335;43.848;25.958;2023-05-29T07:02:37;18.83;;;10.35;;
22334;SDS011;11335;43.848;25.958;2023-05-29T07:05:23;11.93;;;9.32;;
22334;SDS011;11335;43.848;25.958;2023-05-29T07:08:09;13.80;;;9.25;;
22334;SDS011;11335;43.848;25.958;2023-05-29T07:10:55;23.23;;;11.45;;
22334;SDS011;11335;43.848;25.958;2023-05-29T07:13:41;17.98;;;9.98;;
22334;SDS011;11335;43.848;25.958;2023-05-29T07:16:27;12.00;;;9.32;;
22334;SDS011;11335;43.848;25.958;2023-05-29T07:19:12;14.27;;;8.88;;
22334;SDS011;11335;43.848;25.958;2023-05-29T07:21:59;20.20;;;11.15;;
22334;SDS011;11335;43.848;25.958;2023-05-29T07:24:45;15.98;;;10.30;;
22334;SDS011;11335;43.848;25.958;2023-05-29T07:27:31;18.27;;;10.57;;
22334;SDS011;11335;43.848;25.958;2023-05-29T07:30:17;16.83;;;10.52;;
22334;SDS011;11335;43.848;25.958;2023-05-29T07:33:03;14.25;;;9.70;;
22334;SDS011;11335;43.848;25.958;2023-05-29T07:35:49;17.80;;;11.32;;
22334;SDS011;11335;43.848;25.958;2023-05-29T07:38:35;13.20;;;10.07;;
22334;SDS011;11335;43.848;25.958;2023-05-29T07:41:21;15.90;;;10.25;;
22334;SDS011;11335;43.848;25.958;2023-05-29T07:44:06;12.23;;;9.25;;
22334;SDS011;11335;43.848;25.958;2023-05-29T07:46:52;19.40;;;10.68;;
22334;SDS011;11335;43.848;25.958;2023-05-29T07:49:38;11.77;;;9.38;;
22334;SDS011;11335;43.848;25.958;2023-05-29T07:52:24;16.77;;;9.10;;
22334;SDS011;11335;43.848;25.958;2023-05-29T07:55:10;13.23;;;9.63;;
22334;SDS011;11335;43.848;25.958;2023-05-29T07:57:55;17.20;;;12.30;;
22334;SDS011;11335;43.848;25.958;2023-05-29T08:00:43;20.15;;;11.07;;
22334;SDS011;11335;43.848;25.958;2023-05-29T08:03:29;17.38;;;9.85;;
22334;SDS011;11335;43.848;25.958;2023-05-29T08:06:15;12.63;;;10.00;;
22334;SDS011;11335;43.848;25.958;2023-05-29T08:09:02;16.75;;;10.25;;
22334;SDS011;11335;43.848;25.958;2023-05-29T08:11:55;19.42;;;11.30;;
22334;SDS011;11335;43.848;25.958;2023-05-29T08:14:45;18.33;;;10.52;;
22334;SDS011;11335;43.848;25.958;2023-05-29T08:17:33;11.70;;;9.60;;
22334;SDS011;11335;43.848;25.958;2023-05-29T08:20:22;15.77;;;10.50;;
22334;SDS011;11335;43.848;25.958;2023-05-29T08:23:08;20.02;;;10.95;;
22334;SDS011;11335;43.848;25.958;2023-05-29T08:25:53;16.52;;;11.40;;
22334;SDS011;11335;43.848;25.958;2023-05-29T08:28:39;13.52;;;10.02;;
22334;SDS011;11335;43.848;25.958;2023-05-29T08:31:25;18.20;;;9.77;;
22334;SDS011;11335;43.848;25.958;2023-05-29T08:34:12;15.40;;;10.20;;
22334;SDS011;11335;43.848;25.958;2023-05-29T08:36:58;16.77;;;10.25;;
22334;SDS011;11335;43.848;25.958;2023-05-29T08:39:45;12.35;;;9.45;;
22334;SDS011;11335;43.848;25.958;2023-05-29T08:42:32;14.13;;;10.15;;
22334;SDS011;11335;43.848;25.958;2023-05-29T08:45:21;15.93;;;9.23;;
22334;SDS011;11335;43.848;25.958;2023-05-29T08:48:10;14.70;;;8.88;;
22334;SDS011;11335;43.848;25.958;2023-05-29T08:50:57;14.90;;;8.90;;
22334;SDS011;11335;43.848;25.958;2023-05-29T08:53:44;12.35;;;8.82;;
22334;SDS011;11335;43.848;25.958;2023-05-29T08:56:31;15.05;;;8.32;;
22334;SDS011;11335;43.848;25.958;2023-05-29T08:59:21;15.55;;;8.65;;
22334;SDS011;11335;43.848;25.958;2023-05-29T09:02:10;11.63;;;7.75;;
22334;SDS011;11335;43.848;25.958;2023-05-29T09:04:57;10.63;;;7.68;;
22334;SDS011;11335;43.848;25.958;2023-05-29T09:07:43;10.40;;;7.20;;
22334;SDS011;11335;43.848;25.958;2023-05-29T09:10:29;18.67;;;7.78;;
22334;SDS011;11335;43.848;25.958;2023-05-29T09:13:15;14.27;;;8.05;;
22334;SDS011;11335;43.848;25.958;2023-05-29T09:16:01;9.35;;;7.82;;
22334;SDS011;11335;43.848;25.958;2023-05-29T09:18:49;11.50;;;7.40;;
22334;SDS011;11335;43.848;25.958;2023-05-29T09:21:35;10.48;;;8.45;;
22334;SDS011;11335;43.848;25.958;2023-05-29T09:24:21;10.45;;;8.00;;
22334;SDS011;11335;43.848;25.958;2023-05-29T09:27:08;13.88;;;7.80;;
22334;SDS011;11335;43.848;25.958;2023-05-29T09:29:59;12.95;;;7.20;;
22334;SDS011;11335;43.848;25.958;2023-05-29T09:32:44;28.08;;;7.60;;
22334;SDS011;11335;43.848;25.958;2023-05-29T09:35:42;13.27;;;6.95;;
22334;SDS011;11335;43.848;25.958;2023-05-29T09:38:29;13.55;;;6.80;;
22334;SDS011;11335;43.848;25.958;2023-05-29T09:41:21;16.00;;;6.88;;
22334;SDS011;11335;43.848;25.958;2023-05-29T09:44:14;16.13;;;6.47;;
22334;SDS011;11335;43.848;25.958;2023-05-29T09:47:00;12.32;;;6.28;;
22334;SDS011;11335;43.848;25.958;2023-05-29T09:49:46;11.95;;;6.43;;
22334;SDS011;11335;43.848;25.958;2023-05-29T09:52:32;21.13;;;6.93;;
22334;SDS011;11335;43.848;25.958;2023-05-29T09:55:20;11.32;;;6.20;;
22334;SDS011;11335;43.848;25.958;2023-05-29T09:58:06;14.25;;;6.97;;
22334;SDS011;11335;43.848;25.958;2023-05-29T10:00:52;9.25;;;5.95;;
22334;SDS011;11335;43.848;25.958;2023-05-29T10:03:38;12.95;;;6.85;;
22334;SDS011;11335;43.848;25.958;2023-05-29T10:06:25;13.15;;;6.47;;
22334;SDS011;11335;43.848;25.958;2023-05-29T10:09:11;9.27;;;6.65;;
22334;SDS011;11335;43.848;25.958;2023-05-29T10:12:00;17.00;;;6.30;;
22334;SDS011;11335;43.848;25.958;2023-05-29T10:14:51;14.57;;;6.63;;
22334;SDS011;11335;43.848;25.958;2023-05-29T10:17:49;10.95;;;6.68;;
22334;SDS011;11335;43.848;25.958;2023-05-29T10:20:42;17.63;;;7.00;;
22334;SDS011;11335;43.848;25.958;2023-05-29T10:23:30;11.93;;;7.07;;
22334;SDS011;11335;43.848;25.958;2023-05-29T10:26:26;11.18;;;7.15;;
22334;SDS011;11335;43.848;25.958;2023-05-29T10:29:18;9.07;;;6.70;;
22334;SDS011;11335;43.848;25.958;2023-05-29T10:35:20;12.38;;;7.00;;
22334;SDS011;11335;43.848;25.958;2023-05-29T10:38:16;12.98;;;7.00;;
22334;SDS011;11335;43.848;25.958;2023-05-29T10:47:22;9.43;;;6.80;;
22334;SDS011;11335;43.848;25.958;2023-05-29T10:50:08;14.30;;;7.30;;
22334;SDS011;11335;43.848;25.958;2023-05-29T10:53:37;11.98;;;6.95;;
22334;SDS011;11335;43.848;25.958;2023-05-29T10:56:31;10.13;;;7.05;;
22334;SDS011;11335;43.848;25.958;2023-05-29T10:59:17;15.73;;;6.63;;
22334;SDS011;11335;43.848;25.958;2023-05-29T11:02:06;12.48;;;7.30;;
22334;SDS011;11335;43.848;25.958;2023-05-29T11:05:04;16.92;;;7.18;;
22334;SDS011;11335;43.848;25.958;2023-05-29T11:07:53;13.60;;;7.00;;
22334;SDS011;11335;43.848;25.958;2023-05-29T11:13:41;15.00;;;6.55;;
22334;SDS011;11335;43.848;25.958;2023-05-29T11:16:52;14.90;;;7.55;;
22334;SDS011;11335;43.848;25.958;2023-05-29T11:25:53;18.92;;;7.30;;
22334;SDS011;11335;43.848;25.958;2023-05-29T11:28:42;10.35;;;6.72;;
22334;SDS011;11335;43.848;25.958;2023-05-29T11:31:34;13.10;;;6.38;;
22334;SDS011;11335;43.848;25.958;2023-05-29T11:34:22;9.00;;;6.55;;
22334;SDS011;11335;43.848;25.958;2023-05-29T11:37:13;12.77;;;7.07;;
22334;SDS011;11335;43.848;25.958;2023-05-29T11:40:00;9.75;;;6.88;;
22334;SDS011;11335;43.848;25.958;2023-05-29T11:42:50;11.07;;;7.03;;
22334;SDS011;11335;43.848;25.958;2023-05-29T11:45:36;10.68;;;6.85;;
22334;SDS011;11335;43.848;25.958;2023-05-29T11:48:22;18.65;;;7.28;;
22334;SDS011;11335;43.848;25.958;2023-05-29T11:51:10;13.68;;;7.20;;
22334;SDS011;11335;43.848;25.958;2023-05-29T11:53:56;10.50;;;6.85;;
22334;SDS011;11335;43.848;25.958;2023-05-29T11:56:47;12.52;;;6.97;;
22334;SDS011;11335;43.848;25.958;2023-05-29T11:59:33;11.38;;;7.50;;
22334;SDS011;11335;43.848;25.958;2023-05-29T12:02:18;12.48;;;6.65;;
22334;SDS011;11335;43.848;25.958;2023-05-29T12:05:05;13.25;;;7.90;;
22334;SDS011;11335;43.848;25.958;2023-05-29T12:07:55;13.45;;;7.28;;
22334;SDS011;11335;43.848;25.958;2023-05-29T12:10:49;12.38;;;7.22;;
22334;SDS011;11335;43.848;25.958;2023-05-29T12:13:36;16.48;;;7.80;;
22334;SDS011;11335;43.848;25.958;2023-05-29T12:16:22;12.32;;;7.32;;
22334;SDS011;11335;43.848;25.958;2023-05-29T12:19:09;10.20;;;7.15;;
22334;SDS011;11335;43.848;25.958;2023-05-29T12:21:56;11.45;;;6.70;;
22334;SDS011;11335;43.848;25.958;2023-05-29T12:24:42;11.90;;;7.18;;
22334;SDS011;11335;43.848;25.958;2023-05-29T12:27:28;12.68;;;6.72;;
22334;SDS011;11335;43.848;25.958;2023-05-29T12:30:14;10.13;;;6.88;;
22334;SDS011;11335;43.848;25.958;2023-05-29T12:33:05;13.32;;;7.07;;
22334;SDS011;11335;43.848;25.958;2023-05-29T12:35:51;10.70;;;7.05;;
22334;SDS011;11335;43.848;25.958;2023-05-29T12:38:50;16.30;;;6.80;;
22334;SDS011;11335;43.848;25.958;2023-05-29T12:41:37;12.88;;;7.25;;
22334;SDS011;11335;43.848;25.958;2023-05-29T12:44:24;10.32;;;6.97;;
22334;SDS011;11335;43.848;25.958;2023-05-29T12:47:13;17.88;;;7.95;;
22334;SDS011;11335;43.848;25.958;2023-05-29T12:49:59;8.52;;;7.60;;
22334;SDS011;11335;43.848;25.958;2023-05-29T12:53:22;18.20;;;7.70;;
22334;SDS011;11335;43.848;25.958;2023-05-29T12:56:01;12.80;;;7.50;;
22334;SDS011;11335;43.848;25.958;2023-05-29T12:58:47;12.40;;;7.43;;
22334;SDS011;11335;43.848;25.958;2023-05-29T13:01:33;13.25;;;7.68;;
22334;SDS011;11335;43.848;25.958;2023-05-29T13:04:18;11.82;;;7.53;;
22334;SDS011;11335;43.848;25.958;2023-05-29T13:07:04;14.73;;;7.88;;
22334;SDS011;11335;43.848;25.958;2023-05-29T13:09:50;10.70;;;7.43;;
22334;SDS011;11335;43.848;25.958;2023-05-29T13:12:36;20.73;;;8.05;;
22334;SDS011;11335;43.848;25.958;2023-05-29T13:15:22;13.18;;;6.97;;
22334;SDS011;11335;43.848;25.958;2023-05-29T13:18:08;13.68;;;7.15;;
22334;SDS011;11335;43.848;25.958;2023-05-29T13:20:54;12.57;;;6.72;;
22334;SDS011;11335;43.848;25.958;2023-05-29T13:23:40;12.57;;;7.03;;
22334;SDS011;11335;43.848;25.958;2023-05-29T13:26:25;31.73;;;8.35;;
22334;SDS011;11335;43.848;25.958;2023-05-29T13:29:12;8.32;;;6.40;;
22334;SDS011;11335;43.848;25.958;2023-05-29T13:31:57;20.02;;;7.15;;
22334;SDS011;11335;43.848;25.958;2023-05-29T13:34:43;9.85;;;7.65;;
22334;SDS011;11335;43.848;25.958;2023-05-29T13:37:29;12.70;;;6.82;;
22334;SDS011;11335;43.848;25.958;2023-05-29T13:40:15;11.80;;;6.82;;
22334;SDS011;11335;43.848;25.958;2023-05-29T13:43:01;9.98;;;6.93;;
22334;SDS011;11335;43.848;25.958;2023-05-29T13:45:46;25.30;;;10.73;;
22334;SDS011;11335;43.848;25.958;2023-05-29T13:48:32;11.93;;;8.00;;
22334;SDS011;11335;43.848;25.958;2023-05-29T13:51:19;16.20;;;10.90;;
22334;SDS011;11335;43.848;25.958;2023-05-29T13:54:05;36.63;;;14.27;;
22334;SDS011;11335;43.848;25.958;2023-05-29T13:56:50;24.10;;;13.60;;
22334;SDS011;11335;43.848;25.958;2023-05-29T13:59:36;16.80;;;13.27;;
22334;SDS011;11335;43.848;25.958;2023-05-29T14:02:22;21.73;;;13.85;;
22334;SDS011;11335;43.848;25.958;2023-05-29T14:05:08;22.52;;;13.85;;
22334;SDS011;11335;43.848;25.958;2023-05-29T14:07:56;19.38;;;13.95;;
22334;SDS011;11335;43.848;25.958;2023-05-29T14:10:41;25.00;;;17.08;;
22334;SDS011;11335;43.848;25.958;2023-05-29T14:13:28;21.95;;;15.70;;
22334;SDS011;11335;43.848;25.958;2023-05-29T14:16:14;18.45;;;15.23;;
22334;SDS011;11335;43.848;25.958;2023-05-29T14:19:01;19.35;;;14.75;;
22334;SDS011;11335;43.848;25.958;2023-05-29T14:21:47;17.90;;;13.63;;
22334;SDS011;11335;43.848;25.958;2023-05-29T14:24:32;20.38;;;15.02;;
22334;SDS011;11335;43.848;25.958;2023-05-29T14:27:18;14.93;;;12.25;;
22334;SDS011;11335;43.848;25.958;2023-05-29T14:30:04;18.23;;;14.18;;
22334;SDS011;11335;43.848;25.958;2023-05-29T14:32:51;18.17;;;14.45;;
22334;SDS011;11335;43.848;25.958;2023-05-29T14:35:37;16.77;;;14.80;;
22334;SDS011;11335;43.848;25.958;2023-05-29T14:38:23;16.50;;;13.43;;
22334;SDS011;11335;43.848;25.958;2023-05-29T14:41:09;17.30;;;14.00;;
22334;SDS011;11335;43.848;25.958;2023-05-29T14:43:55;15.43;;;11.50;;
22334;SDS011;11335;43.848;25.958;2023-05-29T14:46:44;15.70;;;11.98;;
22334;SDS011;11335;43.848;25.958;2023-05-29T14:49:30;15.40;;;11.75;;
22334;SDS011;11335;43.848;25.958;2023-05-29T14:52:17;14.23;;;11.85;;
22334;SDS011;11335;43.848;25.958;2023-05-29T14:55:06;15.05;;;11.50;;
22334;SDS011;11335;43.848;25.958;2023-05-29T14:57:52;13.63;;;10.30;;
22334;SDS011;11335;43.848;25.958;2023-05-29T15:00:38;14.00;;;9.88;;
22334;SDS011;11335;43.848;25.958;2023-05-29T15:03:23;12.93;;;10.30;;
22334;SDS011;11335;43.848;25.958;2023-05-29T15:06:12;14.45;;;10.02;;
22334;SDS011;11335;43.848;25.958;2023-05-29T15:08:58;14.77;;;10.38;;
22334;SDS011;11335;43.848;25.958;2023-05-29T15:11:46;12.90;;;9.15;;
22334;SDS011;11335;43.848;25.958;2023-05-29T15:14:31;11.43;;;9.05;;
22334;SDS011;11335;43.848;25.958;2023-05-29T15:17:18;14.18;;;9.48;;
22334;SDS011;11335;43.848;25.958;2023-05-29T15:20:04;10.18;;;8.35;;
22334;SDS011;11335;43.848;25.958;2023-05-29T15:22:51;11.82;;;9.07;;
22334;SDS011;11335;43.848;25.958;2023-05-29T15:25:38;13.63;;;8.55;;
22334;SDS011;11335;43.848;25.958;2023-05-29T15:28:23;11.98;;;8.95;;
22334;SDS011;11335;43.848;25.958;2023-05-29T15:31:09;18.27;;;9.38;;
22334;SDS011;11335;43.848;25.958;2023-05-29T15:33:55;11.82;;;9.20;;
22334;SDS011;11335;43.848;25.958;2023-05-29T15:36:41;16.25;;;9.77;;
22334;SDS011;11335;43.848;25.958;2023-05-29T15:39:27;12.38;;;8.90;;
22334;SDS011;11335;43.848;25.958;2023-05-29T15:42:12;15.60;;;9.18;;
22334;SDS011;11335;43.848;25.958;2023-05-29T15:44:59;14.93;;;9.40;;
22334;SDS011;11335;43.848;25.958;2023-05-29T15:47:48;13.32;;;9.43;;
22334;SDS011;11335;43.848;25.958;2023-05-29T15:50:38;17.33;;;10.27;;
22334;SDS011;11335;43.848;25.958;2023-05-29T15:53:25;13.35;;;9.70;;
22334;SDS011;11335;43.848;25.958;2023-05-29T15:56:10;13.40;;;9.65;;
22334;SDS011;11335;43.848;25.958;2023-05-29T15:58:57;11.55;;;9.85;;
22334;SDS011;11335;43.848;25.958;2023-05-29T16:01:42;13.98;;;10.13;;
22334;SDS011;11335;43.848;25.958;2023-05-29T16:04:28;14.73;;;9.13;;
22334;SDS011;11335;43.848;25.958;2023-05-29T16:07:14;13.20;;;8.95;;
22334;SDS011;11335;43.848;25.958;2023-05-29T16:10:00;10.38;;;8.20;;
22334;SDS011;11335;43.848;25.958;2023-05-29T16:12:47;13.52;;;8.68;;
22334;SDS011;11335;43.848;25.958;2023-05-29T16:15:36;14.18;;;8.93;;
22334;SDS011;11335;43.848;25.958;2023-05-29T16:18:21;15.95;;;9.27;;
22334;SDS011;11335;43.848;25.958;2023-05-29T16:21:07;14.02;;;8.75;;
22334;SDS011;11335;43.848;25.958;2023-05-29T16:23:54;16.00;;;9.65;;
22334;SDS011;11335;43.848;25.958;2023-05-29T16:26:43;13.07;;;8.35;;
22334;SDS011;11335;43.848;25.958;2023-05-29T16:29:29;13.30;;;9.13;;
22334;SDS011;11335;43.848;25.958;2023-05-29T16:32:14;15.02;;;8.57;;
22334;SDS011;11335;43.848;25.958;2023-05-29T16:35:01;12.38;;;8.95;;
22334;SDS011;11335;43.848;25.958;2023-05-29T16:37:47;26.55;;;13.68;;
22334;SDS011;11335;43.848;25.958;2023-05-29T16:40:33;13.75;;;9.93;;